To NAV CANADA Home Page Login to a new session Search on AWWS site Feedback and Comments Disclaimer Vers la page française équivalente Tips FAQ What's new on the site To the Forecasts and Observations / NOTAM section To "File a Flight Plan" website Publications and other links Update of the User's profile FIC Telephone Numbers My Weather Data Folder Route Weather Data Regional Weather Data Local Weather Data To the Forecasts and Observations / NOTAM section
Request Generated 08/31/2016 at 04:18:26 UTC . Weather information available at that time is displayed.

METAR/TAF

MARYS HARBOUR/NL    (show WxCam)

METAR CYMH 310400Z AUTO 22003KT 200V270 9SM BKN039 OVC050 08/07 A2969
RMK SLP054=
SPECI CYMH 310333Z AUTO 30006KT 9SM SCT046 BKN055 BKN077 BKN093 08/07
A2969 RMK SLP056=
METAR CYMH 310300Z AUTO 31005KT 9SM -RA SCT038 BKN049 BKN065 OVC089
08/07 A2970 RMK SLP058=
SPECI CYMH 310259Z AUTO 31005KT 9SM -RA SCT038 BKN049 BKN065 OVC089
08/07 A2970 RMK SLP058=
METAR CYMH 310200Z AUTO 26005KT 9SM OVC065 08/06 A2971 RMK SLP062=

*** REMARK        : Forecast period has ended; this was the last TAF issued
*** REMARQUE : La période de prévision est échue; ceci était le dernier TAF qui a été émis
TAF AMD CYMH 302007Z 3020/3103 34012G22KT P6SM OVC040 TEMPO 3020/3024
P6SM -SHRA BKN020 OVC040
BECMG 3101/3103 27008KT
RMK FCST BASED ON AUTO OBS. NXT FCST WILL BE ISSUED AT 310845Z=
Your time UTC time
Weather data provided by Environment Canada and NAV CANADA